Archival Weather

Bob Hope

Burbank, California (KBUR)

Report from: Monday, January 29, 2024 1:53 AM PST
Current time: Friday, June 14, 2024 6:53 AM PDT

Current weather – Weather history – Daily summaries
Weather forecast

Temperature12.2°C (54.0°F)
Dew point3.9°C (39.0°F)
Winds Calm
Visibility10 mi. (16.1 km)
Clouds Sky clear
Altimeter30.14 in.Hg (1021 mB)
Relative humidity57 %
Density altitude-428 ft. (-130 m)
Sea-level pressure102.0 kPa (1020 mB, 30.11 in.Hg)
Remarks Automated weather observing station with precipitation discriminator
Flight conditions Visual Meteorological Conditions
Raw dataKBUR 290953Z 00000KT 10SM CLR 12/04 A3014 RMK AO2 SLP196 T01220039
An error has occurred. This application may no longer respond until reloaded. Reload 🗙